createdAt,value
2022-11-23T00:00:16.000Z,993.3
2022-11-23T00:02:39.000Z,993.3
2022-11-23T00:03:23.824Z,993.3
2022-11-23T00:03:51.000Z,993.3
2022-11-23T00:05:04.000Z,993.2
2022-11-23T00:06:16.000Z,993.2
2022-11-23T00:07:28.000Z,993.2
2022-11-23T00:08:11.579Z,993.3
2022-11-23T00:08:40.000Z,993.2
2022-11-23T00:09:52.000Z,993.2
2022-11-23T00:11:05.000Z,993.2
2022-11-23T00:12:17.000Z,993.3
2022-11-23T00:13:29.000Z,993.2
2022-11-23T00:14:41.000Z,993.2
2022-11-23T00:15:53.000Z,993.3
2022-11-23T00:17:04.000Z,993.2
2022-11-23T00:18:17.000Z,993.2
2022-11-23T00:19:29.000Z,993.2
2022-11-23T00:20:41.000Z,993.3
2022-11-23T00:21:53.000Z,993.3
2022-11-23T00:23:05.000Z,993.3
2022-11-23T00:24:18.000Z,993.3
2022-11-23T00:25:30.000Z,993.3
2022-11-23T00:26:42.000Z,993.3
2022-11-23T00:27:54.000Z,993.3
2022-11-23T00:29:06.000Z,993.3
2022-11-23T00:30:19.000Z,993.3
2022-11-23T00:31:31.000Z,993.3
2022-11-23T00:32:42.000Z,993.3
2022-11-23T00:33:54.000Z,993.3
2022-11-23T00:35:06.000Z,993.3
2022-11-23T00:36:18.000Z,993.3
2022-11-23T00:37:31.000Z,993.3
2022-11-23T00:38:43.000Z,993.3
2022-11-23T00:39:55.000Z,993.4
2022-11-23T00:41:07.000Z,993.4
2022-11-23T00:42:19.000Z,993.3
2022-11-23T00:43:32.000Z,993.4
2022-11-23T00:44:44.000Z,993.4
2022-11-23T00:45:56.000Z,993.4
2022-11-23T00:47:08.000Z,993.4
2022-11-23T00:48:19.000Z,993.4
2022-11-23T00:49:32.000Z,993.4
2022-11-23T00:50:44.000Z,993.4
2022-11-23T00:51:56.000Z,993.4
2022-11-23T00:53:08.000Z,993.4
2022-11-23T00:54:20.000Z,993.4
2022-11-23T00:55:32.000Z,993.4
2022-11-23T00:56:45.000Z,993.4
2022-11-23T00:57:57.000Z,993.4
2022-11-23T00:59:09.000Z,993.4
2022-11-23T01:00:21.000Z,993.5
2022-11-23T01:01:33.000Z,993.4
2022-11-23T01:02:46.000Z,993.4
2022-11-23T01:03:57.000Z,993.4
2022-11-23T01:05:09.000Z,993.4
2022-11-23T01:06:21.000Z,993.5
2022-11-23T01:07:33.000Z,993.4
2022-11-23T01:08:46.000Z,993.5
2022-11-23T01:09:58.000Z,993.4
2022-11-23T01:11:10.000Z,993.4
2022-11-23T01:12:22.000Z,993.4
2022-11-23T01:13:34.000Z,993.4
2022-11-23T01:14:46.000Z,993.5
2022-11-23T01:15:59.000Z,993.4
2022-11-23T01:17:11.000Z,993.4
2022-11-23T01:18:23.000Z,993.4
2022-11-23T01:19:34.000Z,993.4
2022-11-23T01:20:46.000Z,993.5
2022-11-23T01:21:59.000Z,993.5
2022-11-23T01:23:11.000Z,993.4
2022-11-23T01:24:23.000Z,993.4
2022-11-23T01:25:35.000Z,993.4
2022-11-23T01:26:47.000Z,993.4
2022-11-23T01:27:59.000Z,993.4
2022-11-23T01:29:12.000Z,993.4
2022-11-23T01:30:24.000Z,993.4
2022-11-23T01:31:36.000Z,993.4
2022-11-23T01:32:48.000Z,993.5
2022-11-23T01:34:00.000Z,993.4
2022-11-23T01:35:12.000Z,993.5
2022-11-23T01:36:24.000Z,993.5
2022-11-23T01:37:36.000Z,993.5
2022-11-23T01:38:48.000Z,993.5
2022-11-23T01:40:00.000Z,993.5
2022-11-23T01:41:13.000Z,993.5
2022-11-23T01:42:25.000Z,993.5
2022-11-23T01:43:37.000Z,993.5
2022-11-23T01:44:49.000Z,993.6
2022-11-23T01:46:01.000Z,993.6
2022-11-23T01:47:13.000Z,993.6
2022-11-23T01:48:26.000Z,993.6
2022-11-23T01:49:38.000Z,993.6
2022-11-23T01:50:49.000Z,993.6
2022-11-23T01:52:01.000Z,993.6
2022-11-23T01:53:13.000Z,993.5
2022-11-23T01:54:26.000Z,993.6
2022-11-23T01:55:38.000Z,993.6
2022-11-23T01:56:50.000Z,993.6
2022-11-23T01:58:02.000Z,993.6
2022-11-23T01:59:14.000Z,993.7
2022-11-23T02:00:27.000Z,993.7
2022-11-23T02:01:39.000Z,993.7
2022-11-23T02:02:51.000Z,993.7
2022-11-23T02:04:03.000Z,993.7
2022-11-23T02:05:15.000Z,993.7
2022-11-23T02:06:26.000Z,993.7
2022-11-23T02:07:39.000Z,993.7
2022-11-23T02:08:51.000Z,993.7
2022-11-23T02:10:03.000Z,993.8
2022-11-23T02:11:15.000Z,993.7
2022-11-23T02:12:27.000Z,993.8
2022-11-23T02:13:40.000Z,993.8
2022-11-23T02:14:52.000Z,993.7
2022-11-23T02:16:04.000Z,993.8
2022-11-23T02:17:16.000Z,993.8
2022-11-23T02:18:28.000Z,993.8
2022-11-23T02:19:41.000Z,993.9
2022-11-23T02:20:53.000Z,993.8
2022-11-23T02:22:04.000Z,993.8
2022-11-23T02:24:28.000Z,993.7
2022-11-23T02:25:40.000Z,993.8
2022-11-23T02:26:53.000Z,993.8
2022-11-23T02:28:05.000Z,993.7
2022-11-23T02:29:17.000Z,993.8
2022-11-23T02:30:00.708Z,993.7
2022-11-23T02:30:29.000Z,993.7
2022-11-23T02:31:41.000Z,993.8
2022-11-23T02:32:54.000Z,993.7
2022-11-23T02:34:06.000Z,993.8
2022-11-23T02:35:18.000Z,993.8
2022-11-23T02:36:30.000Z,993.7
2022-11-23T02:37:41.000Z,993.7
2022-11-23T02:38:54.000Z,993.7
2022-11-23T02:40:06.000Z,993.8
2022-11-23T02:41:18.000Z,993.7
2022-11-23T02:42:30.000Z,993.7
2022-11-23T02:43:42.000Z,993.7
2022-11-23T02:44:54.000Z,993.7
2022-11-23T02:46:07.000Z,993.8
2022-11-23T02:47:19.000Z,993.7
2022-11-23T02:48:31.000Z,993.7
2022-11-23T02:49:43.000Z,993.7
2022-11-23T02:50:55.000Z,993.7
2022-11-23T02:52:08.000Z,993.7
2022-11-23T02:53:19.000Z,993.8
2022-11-23T02:54:31.000Z,993.7
2022-11-23T02:55:43.000Z,993.7
2022-11-23T02:56:55.000Z,993.7
2022-11-23T02:58:08.000Z,993.8
2022-11-23T02:59:20.000Z,993.8
2022-11-23T03:00:32.000Z,993.8
2022-11-23T03:01:44.000Z,993.8
2022-11-23T03:02:56.000Z,993.9
2022-11-23T03:04:08.000Z,993.9
2022-11-23T03:05:21.000Z,993.9
2022-11-23T03:06:33.000Z,993.9
2022-11-23T03:07:45.000Z,993.9
2022-11-23T03:08:56.000Z,993.8
2022-11-23T03:10:08.000Z,994
2022-11-23T03:12:33.000Z,993.9
2022-11-23T03:13:45.000Z,993.9
2022-11-23T03:14:57.000Z,994
2022-11-23T03:16:09.000Z,994
2022-11-23T03:17:22.000Z,994
2022-11-23T03:18:05.223Z,993.9
2022-11-23T03:18:34.000Z,994
2022-11-23T03:19:46.000Z,994
2022-11-23T03:20:58.000Z,994
2022-11-23T03:22:10.000Z,994
2022-11-23T03:23:22.000Z,994
2022-11-23T03:24:34.000Z,994
2022-11-23T03:25:46.000Z,994
2022-11-23T03:26:58.000Z,994
2022-11-23T03:28:10.000Z,994
2022-11-23T03:29:22.000Z,994
2022-11-23T03:30:35.000Z,994
2022-11-23T03:31:47.000Z,994
2022-11-23T03:32:59.000Z,994
2022-11-23T03:34:11.000Z,994
2022-11-23T03:35:23.000Z,994
2022-11-23T03:36:35.000Z,994
2022-11-23T03:37:48.000Z,993.9
2022-11-23T03:39:00.000Z,994
2022-11-23T03:40:11.000Z,994
2022-11-23T03:41:23.000Z,994.1
2022-11-23T03:42:35.000Z,994
2022-11-23T03:43:48.000Z,994
2022-11-23T03:45:00.000Z,994
2022-11-23T03:46:12.000Z,994
2022-11-23T03:47:24.000Z,994
2022-11-23T03:48:36.000Z,994
2022-11-23T03:49:49.000Z,994
2022-11-23T03:51:01.000Z,994.1
2022-11-23T03:52:13.000Z,994
2022-11-23T03:53:25.000Z,994
2022-11-23T03:54:37.000Z,994.1
2022-11-23T03:55:48.000Z,994
2022-11-23T03:57:01.000Z,994
2022-11-23T03:58:13.000Z,993.9
2022-11-23T03:59:25.000Z,994
2022-11-23T04:00:37.000Z,993.9
2022-11-23T04:01:49.000Z,994
2022-11-23T04:03:01.000Z,993.9
2022-11-23T04:04:13.000Z,993.9
2022-11-23T04:05:25.000Z,994
2022-11-23T04:06:37.000Z,993.9
2022-11-23T04:07:49.000Z,993.9
2022-11-23T04:09:02.000Z,993.9
2022-11-23T04:10:14.000Z,993.9
2022-11-23T04:11:26.000Z,993.9
2022-11-23T04:12:38.608Z,993.9
2022-11-23T04:13:50.000Z,993.9
2022-11-23T04:15:02.000Z,993.9
2022-11-23T04:16:15.000Z,993.9
2022-11-23T04:17:27.000Z,993.8
2022-11-23T04:18:38.000Z,993.9
2022-11-23T04:19:50.000Z,993.8
2022-11-23T04:21:02.000Z,993.8
2022-11-23T04:22:15.000Z,993.8
2022-11-23T04:23:27.000Z,993.8
2022-11-23T04:24:39.000Z,993.9
2022-11-23T04:25:51.000Z,993.8
2022-11-23T04:27:03.000Z,993.8
2022-11-23T04:28:16.000Z,993.8
2022-11-23T04:29:28.000Z,993.8
2022-11-23T04:30:40.000Z,993.8
2022-11-23T04:31:52.000Z,993.8
2022-11-23T04:33:04.000Z,993.9
2022-11-23T04:34:15.000Z,993.8
2022-11-23T04:35:28.000Z,993.8
2022-11-23T04:36:40.000Z,993.9
2022-11-23T04:37:52.000Z,993.8
2022-11-23T04:39:04.000Z,993.9
2022-11-23T04:40:16.000Z,994
2022-11-23T04:41:29.000Z,993.9
2022-11-23T04:42:41.000Z,993.9
2022-11-23T04:43:53.000Z,993.9
2022-11-23T04:45:05.000Z,993.9
2022-11-23T04:46:17.000Z,993.9
2022-11-23T04:48:42.000Z,993.9
2022-11-23T04:49:53.000Z,993.9
2022-11-23T04:51:05.000Z,993.9
2022-11-23T04:52:17.000Z,993.9
2022-11-23T04:53:29.000Z,993.8
2022-11-23T04:54:14.218Z,993.9
2022-11-23T04:54:42.000Z,993.8
2022-11-23T04:55:54.000Z,993.8
2022-11-23T04:57:06.000Z,993.9
2022-11-23T04:58:18.000Z,993.8
2022-11-23T04:59:30.000Z,993.8
2022-11-23T05:00:43.000Z,993.8
2022-11-23T05:01:55.000Z,993.9
2022-11-23T05:03:07.000Z,993.9
2022-11-23T05:04:19.000Z,993.8
2022-11-23T05:05:30.000Z,993.8
2022-11-23T05:06:43.000Z,993.8
2022-11-23T05:07:55.000Z,993.8
2022-11-23T05:09:07.000Z,993.8
2022-11-23T05:10:19.000Z,993.8
2022-11-23T05:11:31.000Z,993.8
2022-11-23T05:12:43.000Z,993.8
2022-11-23T05:13:56.000Z,993.8
2022-11-23T05:15:08.000Z,993.8
2022-11-23T05:16:20.000Z,993.7
2022-11-23T05:17:32.000Z,993.8
2022-11-23T05:18:44.000Z,993.8
2022-11-23T05:19:57.000Z,993.8
2022-11-23T05:21:08.000Z,993.8
2022-11-23T05:22:20.000Z,993.9
2022-11-23T05:23:32.000Z,993.8
2022-11-23T05:24:44.000Z,993.8
2022-11-23T05:25:57.000Z,993.8
2022-11-23T05:28:21.000Z,993.9
2022-11-23T05:29:33.000Z,993.9
2022-11-23T05:30:45.000Z,993.9
2022-11-23T05:31:57.000Z,994
2022-11-23T05:33:10.000Z,993.9
2022-11-23T05:33:53.433Z,993.9
2022-11-23T05:34:22.000Z,993.9
2022-11-23T05:35:34.000Z,993.9
2022-11-23T05:36:45.000Z,993.9
2022-11-23T05:37:57.000Z,994
2022-11-23T05:39:10.000Z,994
2022-11-23T05:40:22.000Z,993.9
2022-11-23T05:41:34.000Z,994
2022-11-23T05:43:58.000Z,993.9
2022-11-23T05:45:11.000Z,993.9
2022-11-23T05:46:23.000Z,993.9
2022-11-23T05:47:35.000Z,993.9
2022-11-23T05:48:47.000Z,993.9
2022-11-23T05:49:30.881Z,994
2022-11-23T05:49:59.000Z,993.9
2022-11-23T05:51:11.000Z,993.9
2022-11-23T05:52:23.000Z,993.8
2022-11-23T05:53:35.000Z,993.9
2022-11-23T05:54:47.000Z,993.9
2022-11-23T05:55:59.000Z,993.9
2022-11-23T05:57:11.000Z,993.9
2022-11-23T05:58:24.000Z,993.9
2022-11-23T05:59:36.000Z,993.9
2022-11-23T06:00:48.000Z,993.9
2022-11-23T06:02:00.000Z,993.9
2022-11-23T06:03:12.000Z,993.9
2022-11-23T06:04:24.000Z,993.9
2022-11-23T06:05:37.000Z,993.9
2022-11-23T06:06:49.000Z,993.8
2022-11-23T06:08:00.000Z,993.9
2022-11-23T06:09:12.000Z,993.8
2022-11-23T06:10:24.000Z,993.8
2022-11-23T06:11:37.000Z,993.8
2022-11-23T06:12:49.000Z,993.9
2022-11-23T06:14:01.000Z,993.9
2022-11-23T06:15:13.000Z,993.8
2022-11-23T06:16:25.000Z,993.9
2022-11-23T06:17:38.000Z,993.9
2022-11-23T06:18:50.000Z,993.9
2022-11-23T06:20:02.000Z,993.9
2022-11-23T06:21:14.000Z,993.9
2022-11-23T06:22:26.000Z,993.9
2022-11-23T06:23:37.000Z,993.9
2022-11-23T06:24:50.000Z,993.9
2022-11-23T06:26:02.000Z,993.9
2022-11-23T06:27:14.000Z,993.9
2022-11-23T06:28:26.000Z,993.9
2022-11-23T06:29:38.000Z,993.9
2022-11-23T06:30:51.000Z,993.9
2022-11-23T06:32:03.000Z,993.9
2022-11-23T06:33:15.000Z,994
2022-11-23T06:34:27.000Z,994
2022-11-23T06:35:39.000Z,994
2022-11-23T06:36:51.000Z,994
2022-11-23T06:38:04.000Z,994.1
2022-11-23T06:39:15.000Z,994.1
2022-11-23T06:40:27.000Z,994.1
2022-11-23T06:41:39.000Z,994.1
2022-11-23T06:42:51.000Z,994.1
2022-11-23T06:44:04.000Z,994.1
2022-11-23T06:45:16.000Z,994.1
2022-11-23T06:46:28.000Z,994.2
2022-11-23T06:47:40.000Z,994.2
2022-11-23T06:48:52.000Z,994.2
2022-11-23T06:50:05.000Z,994.2
2022-11-23T06:51:17.000Z,994.2
2022-11-23T06:52:29.000Z,994.2
2022-11-23T06:53:41.000Z,994.2
2022-11-23T06:54:52.000Z,994.2
2022-11-23T06:56:04.000Z,994.2
2022-11-23T06:57:17.000Z,994.2
2022-11-23T06:58:29.000Z,994.3
2022-11-23T06:59:41.000Z,994.2
2022-11-23T07:00:53.000Z,994.2
2022-11-23T07:02:05.000Z,994.3
2022-11-23T07:03:18.000Z,994.3
2022-11-23T07:04:30.000Z,994.2
2022-11-23T07:05:42.000Z,994.2
2022-11-23T07:06:54.000Z,994.3
2022-11-23T07:08:06.000Z,994.3
2022-11-23T07:09:18.000Z,994.2
2022-11-23T07:10:30.000Z,994.3
2022-11-23T07:11:42.000Z,994.3
2022-11-23T07:12:54.000Z,994.3
2022-11-23T07:14:06.000Z,994.2
2022-11-23T07:15:18.000Z,994.3
2022-11-23T07:16:31.000Z,994.3
2022-11-23T07:17:43.000Z,994.2
2022-11-23T07:18:55.000Z,994.2
2022-11-23T07:20:07.000Z,994.1
2022-11-23T07:21:19.000Z,994.2
2022-11-23T07:22:32.000Z,994.1
2022-11-23T07:23:44.000Z,994.2
2022-11-23T07:24:56.000Z,994.2
2022-11-23T07:26:07.000Z,994.2
2022-11-23T07:27:19.000Z,994.2
2022-11-23T07:28:31.000Z,994.3
2022-11-23T07:29:44.000Z,994.3
2022-11-23T07:30:56.000Z,994.3
2022-11-23T07:32:08.000Z,994.3
2022-11-23T07:33:20.000Z,994.3
2022-11-23T07:34:32.000Z,994.2
2022-11-23T07:35:45.000Z,994.4
2022-11-23T07:36:57.000Z,994.4
2022-11-23T07:38:09.000Z,994.3
2022-11-23T07:39:21.000Z,994.3
2022-11-23T07:40:33.000Z,994.3
2022-11-23T07:41:45.000Z,994.3
2022-11-23T07:42:57.000Z,994.3
2022-11-23T07:44:09.000Z,994.3
2022-11-23T07:45:21.000Z,994.4
2022-11-23T07:46:33.000Z,994.3
2022-11-23T07:47:45.000Z,994.4
2022-11-23T07:48:58.000Z,994.4
2022-11-23T07:50:10.000Z,994.4
2022-11-23T07:51:22.000Z,994.4
2022-11-23T07:52:34.000Z,994.4
2022-11-23T07:53:46.000Z,994.5
2022-11-23T07:54:59.000Z,994.5
2022-11-23T07:56:11.000Z,994.5
2022-11-23T07:57:22.000Z,994.5
2022-11-23T07:58:34.000Z,994.5
2022-11-23T07:59:46.000Z,994.6
2022-11-23T08:00:58.000Z,994.6
2022-11-23T08:02:11.000Z,994.6
2022-11-23T08:03:23.000Z,994.6
2022-11-23T08:04:34.000Z,994.6
2022-11-23T08:05:46.000Z,994.6
2022-11-23T08:06:58.000Z,994.6
2022-11-23T08:08:11.000Z,994.6
2022-11-23T08:09:23.000Z,994.6
2022-11-23T08:10:35.000Z,994.6
2022-11-23T08:11:47.000Z,994.7
2022-11-23T08:12:59.000Z,994.7
2022-11-23T08:14:12.000Z,994.7
2022-11-23T08:15:24.000Z,994.7
2022-11-23T08:16:36.000Z,994.7
2022-11-23T08:17:48.000Z,994.7
2022-11-23T08:19:00.000Z,994.7
2022-11-23T08:20:11.000Z,994.7
2022-11-23T08:21:24.000Z,994.7
2022-11-23T08:22:36.000Z,994.6
2022-11-23T08:23:48.000Z,994.6
2022-11-23T08:25:00.000Z,994.6
2022-11-23T08:26:12.000Z,994.6
2022-11-23T08:27:25.000Z,994.7
2022-11-23T08:28:37.000Z,994.7
2022-11-23T08:29:49.000Z,994.7
2022-11-23T08:31:01.000Z,994.7
2022-11-23T08:32:13.000Z,994.7
2022-11-23T08:33:25.000Z,994.7
2022-11-23T08:34:38.000Z,994.7
2022-11-23T08:35:49.000Z,994.8
2022-11-23T08:37:01.000Z,994.7
2022-11-23T08:38:13.000Z,994.8
2022-11-23T08:39:25.000Z,994.8
2022-11-23T08:40:38.000Z,994.8
2022-11-23T08:41:50.000Z,994.7
2022-11-23T08:43:02.000Z,994.7
2022-11-23T08:44:14.000Z,994.7
2022-11-23T08:45:26.000Z,994.7
2022-11-23T08:46:39.000Z,994.7
2022-11-23T08:47:51.000Z,994.7
2022-11-23T08:49:03.000Z,994.7
2022-11-23T08:50:15.000Z,994.7
2022-11-23T08:51:26.000Z,994.7
2022-11-23T08:52:38.000Z,994.7
2022-11-23T08:53:51.000Z,994.8
2022-11-23T08:55:03.000Z,994.7
2022-11-23T08:56:15.000Z,994.8
2022-11-23T08:57:27.000Z,994.7
2022-11-23T08:58:39.000Z,994.7
2022-11-23T08:59:52.000Z,994.7
2022-11-23T09:01:04.000Z,994.8
2022-11-23T09:03:28.000Z,994.8
2022-11-23T09:04:40.000Z,994.8
2022-11-23T09:05:52.000Z,994.9
2022-11-23T09:07:04.000Z,994.9
2022-11-23T09:08:16.000Z,994.9
2022-11-23T09:09:00.784Z,994.8
2022-11-23T09:09:28.000Z,994.9
2022-11-23T09:10:40.000Z,994.9
2022-11-23T09:11:52.000Z,994.9
2022-11-23T09:13:05.000Z,994.9
2022-11-23T09:14:17.000Z,994.9
2022-11-23T09:15:29.000Z,994.9
2022-11-23T09:16:41.000Z,994.9
2022-11-23T09:17:53.000Z,994.8
2022-11-23T09:19:06.000Z,994.8
2022-11-23T09:20:18.000Z,994.8
2022-11-23T09:21:30.000Z,994.8
2022-11-23T09:22:41.000Z,994.8
2022-11-23T09:23:53.000Z,994.7
2022-11-23T09:25:05.000Z,994.8
2022-11-23T09:26:18.000Z,994.7
2022-11-23T09:27:30.000Z,994.7
2022-11-23T09:28:42.000Z,994.7
2022-11-23T09:29:54.000Z,994.7
2022-11-23T09:31:06.000Z,994.7
2022-11-23T09:32:19.000Z,994.6
2022-11-23T09:33:31.000Z,994.7
2022-11-23T09:34:43.000Z,994.7
2022-11-23T09:35:55.000Z,994.6
2022-11-23T09:37:07.000Z,994.7
2022-11-23T09:38:19.000Z,994.7
2022-11-23T09:39:31.000Z,994.7
2022-11-23T09:40:43.000Z,994.7
2022-11-23T09:41:55.000Z,994.7
2022-11-23T09:43:07.000Z,994.7
2022-11-23T09:44:19.000Z,994.7
2022-11-23T09:45:32.000Z,994.7
2022-11-23T09:46:44.000Z,994.7
2022-11-23T09:47:56.000Z,994.6
2022-11-23T09:49:08.000Z,994.6
2022-11-23T09:50:20.000Z,994.6
2022-11-23T09:51:33.000Z,994.7
2022-11-23T09:52:45.000Z,994.6
2022-11-23T09:53:56.000Z,994.7
2022-11-23T09:55:08.000Z,994.7
2022-11-23T09:56:20.000Z,994.6
2022-11-23T09:57:32.000Z,994.6
2022-11-23T09:58:45.000Z,994.6
2022-11-23T09:59:57.000Z,994.6
2022-11-23T10:01:09.000Z,994.7
2022-11-23T10:02:21.000Z,994.6
2022-11-23T10:03:33.000Z,994.6
2022-11-23T10:04:46.000Z,994.6
2022-11-23T10:05:58.000Z,994.6
2022-11-23T10:07:10.000Z,994.6
2022-11-23T10:08:22.000Z,994.6
2022-11-23T10:09:33.000Z,994.6
2022-11-23T10:10:46.000Z,994.6
2022-11-23T10:11:58.000Z,994.6
2022-11-23T10:13:10.000Z,994.6
2022-11-23T10:14:22.000Z,994.7
2022-11-23T10:15:34.000Z,994.7
2022-11-23T10:16:46.000Z,994.7
2022-11-23T10:17:59.000Z,994.7
2022-11-23T10:19:11.000Z,994.7
2022-11-23T10:20:23.000Z,994.7
2022-11-23T10:21:35.000Z,994.7
2022-11-23T10:22:47.000Z,994.7
2022-11-23T10:24:00.000Z,994.7
2022-11-23T10:25:12.000Z,994.6
2022-11-23T10:26:23.000Z,994.7
2022-11-23T10:27:35.000Z,994.6
2022-11-23T10:28:47.000Z,994.6
2022-11-23T10:30:00.000Z,994.6
2022-11-23T10:31:12.000Z,994.6
2022-11-23T10:32:24.000Z,994.5
2022-11-23T10:34:48.000Z,994.6
2022-11-23T10:36:00.000Z,994.5
2022-11-23T10:37:13.000Z,994.5
2022-11-23T10:38:25.000Z,994.6
2022-11-23T10:39:37.000Z,994.6
2022-11-23T10:40:20.941Z,994.6
2022-11-23T10:40:49.000Z,994.5
2022-11-23T10:42:00.000Z,994.5
2022-11-23T10:43:13.000Z,994.5
2022-11-23T10:44:25.000Z,994.5
2022-11-23T10:45:37.000Z,994.5
2022-11-23T10:46:49.000Z,994.5
2022-11-23T10:48:01.000Z,994.5
2022-11-23T10:49:13.000Z,994.5
2022-11-23T10:50:26.000Z,994.6
2022-11-23T10:51:38.000Z,994.5
2022-11-23T10:52:50.000Z,994.5
2022-11-23T10:54:02.000Z,994.5
2022-11-23T10:55:14.000Z,994.5
2022-11-23T10:56:27.000Z,994.4
2022-11-23T10:57:38.000Z,994.5
2022-11-23T10:58:50.000Z,994.5
2022-11-23T11:00:02.000Z,994.5
2022-11-23T11:01:14.000Z,994.5
2022-11-23T11:02:27.000Z,994.5
2022-11-23T11:03:39.000Z,994.4
2022-11-23T11:04:51.000Z,994.4
2022-11-23T11:06:03.000Z,994.5
2022-11-23T11:07:15.000Z,994.5
2022-11-23T11:09:40.000Z,994.4
2022-11-23T11:10:52.000Z,994.5
2022-11-23T11:12:04.000Z,994.5
2022-11-23T11:13:15.000Z,994.5
2022-11-23T11:14:27.000Z,994.5
2022-11-23T11:15:12.346Z,994.5
2022-11-23T11:15:40.000Z,994.4
2022-11-23T11:16:52.000Z,994.4
2022-11-23T11:18:04.000Z,994.4
2022-11-23T11:19:16.000Z,994.5
2022-11-23T11:20:28.000Z,994.4
2022-11-23T11:21:40.000Z,994.5
2022-11-23T11:22:53.000Z,994.4
2022-11-23T11:24:05.000Z,994.4
2022-11-23T11:25:17.000Z,994.4
2022-11-23T11:26:29.000Z,994.4
2022-11-23T11:27:41.000Z,994.3
2022-11-23T11:28:54.000Z,994.4
2022-11-23T11:30:05.000Z,994.3
2022-11-23T11:31:17.000Z,994.3
2022-11-23T11:32:29.000Z,994.3
2022-11-23T11:33:41.000Z,994.2
2022-11-23T11:34:54.000Z,994.2
2022-11-23T11:36:06.000Z,994.2
2022-11-23T11:37:18.000Z,994.2
2022-11-23T11:38:30.000Z,994.2
2022-11-23T11:39:42.000Z,994.2
2022-11-23T11:40:54.000Z,994.2
2022-11-23T11:42:07.000Z,994.2
2022-11-23T11:43:19.000Z,994.2
2022-11-23T11:44:31.000Z,994.2
2022-11-23T11:45:42.000Z,994.2
2022-11-23T11:46:54.000Z,994.2
2022-11-23T11:48:07.000Z,994.2
2022-11-23T11:49:19.000Z,994.2
2022-11-23T11:50:31.000Z,994.2
2022-11-23T11:51:43.000Z,994.2
2022-11-23T11:52:55.000Z,994.1
2022-11-23T11:54:07.000Z,994.2
2022-11-23T11:55:20.000Z,994.2
2022-11-23T11:56:32.000Z,994.2
2022-11-23T11:57:44.000Z,994.2
2022-11-23T11:58:56.000Z,994.2
2022-11-23T12:00:08.000Z,994.3
2022-11-23T12:01:20.000Z,994.2
2022-11-23T12:02:32.000Z,994.2
2022-11-23T12:03:44.000Z,994.3
2022-11-23T12:04:56.000Z,994.2
2022-11-23T12:06:07.000Z,994.2
2022-11-23T12:07:20.000Z,994.2
2022-11-23T12:08:32.000Z,994.2
2022-11-23T12:09:44.000Z,994.2
2022-11-23T12:10:56.000Z,994.2
2022-11-23T12:12:08.000Z,994.2
2022-11-23T12:13:20.000Z,994.2
2022-11-23T12:14:33.000Z,994.1
2022-11-23T12:15:45.000Z,994.2
2022-11-23T12:16:57.000Z,994.2
2022-11-23T12:18:09.000Z,994.2
2022-11-23T12:19:21.000Z,994.2
2022-11-23T12:20:34.000Z,994.2
2022-11-23T12:21:45.000Z,994.1
2022-11-23T12:22:57.000Z,994.2
2022-11-23T12:24:09.000Z,994.1
2022-11-23T12:25:21.000Z,994.1
2022-11-23T12:26:34.000Z,994.1
2022-11-23T12:27:46.000Z,994.1
2022-11-23T12:28:58.000Z,994.1
2022-11-23T12:30:10.000Z,994.1
2022-11-23T12:31:22.000Z,994.1
2022-11-23T12:32:34.000Z,994.1
2022-11-23T12:33:47.000Z,994.1
2022-11-23T12:34:59.000Z,994.1
2022-11-23T12:36:11.000Z,994.1
2022-11-23T12:37:22.000Z,994.1
2022-11-23T12:38:34.000Z,994.1
2022-11-23T12:39:47.000Z,994.1
2022-11-23T12:40:59.000Z,994.1
2022-11-23T12:42:11.000Z,994.1
2022-11-23T12:43:23.000Z,994.1
2022-11-23T12:44:35.000Z,994
2022-11-23T12:45:47.000Z,994.1
2022-11-23T12:47:00.000Z,994.1
2022-11-23T12:48:12.000Z,994.1
2022-11-23T12:49:24.000Z,994
2022-11-23T12:51:48.000Z,994
2022-11-23T12:53:00.000Z,994.1
2022-11-23T12:54:12.000Z,994
2022-11-23T12:55:24.000Z,994.1
2022-11-23T12:56:36.000Z,994.1
2022-11-23T12:57:21.203Z,994
2022-11-23T12:57:48.000Z,994.1
2022-11-23T12:59:01.000Z,994
2022-11-23T13:00:13.000Z,994
2022-11-23T13:01:25.000Z,994
2022-11-23T13:02:37.000Z,994.1
2022-11-23T13:03:49.000Z,994.1
2022-11-23T13:05:01.000Z,994.1
2022-11-23T13:06:14.000Z,994.1
2022-11-23T13:07:26.000Z,994.1
2022-11-23T13:08:37.000Z,994
2022-11-23T13:09:49.000Z,994.1
2022-11-23T13:11:01.000Z,994
2022-11-23T13:12:14.000Z,994
2022-11-23T13:13:26.000Z,994.1
2022-11-23T13:14:38.000Z,994.1
2022-11-23T13:15:50.000Z,994
2022-11-23T13:17:02.000Z,994.1
2022-11-23T13:18:15.000Z,994
2022-11-23T13:19:27.000Z,994
2022-11-23T13:20:39.000Z,994.1
2022-11-23T13:21:51.000Z,994
2022-11-23T13:23:03.000Z,994
2022-11-23T13:25:27.000Z,994
2022-11-23T13:26:39.000Z,994
2022-11-23T13:27:51.000Z,994
2022-11-23T13:29:03.000Z,994
2022-11-23T13:30:15.000Z,994.1
2022-11-23T13:30:59.000Z,994
2022-11-23T13:31:28.000Z,994
2022-11-23T13:32:40.000Z,994
2022-11-23T13:33:52.000Z,994.1
2022-11-23T13:35:04.000Z,994
2022-11-23T13:36:16.000Z,994
2022-11-23T13:37:28.000Z,994.1
2022-11-23T13:38:41.000Z,994.1
2022-11-23T13:39:52.000Z,994
2022-11-23T13:41:04.000Z,994
2022-11-23T13:42:16.000Z,994
2022-11-23T13:43:28.000Z,994
2022-11-23T13:44:41.000Z,994
2022-11-23T13:45:53.000Z,994
2022-11-23T13:47:05.000Z,994
2022-11-23T13:48:17.000Z,994
2022-11-23T13:49:29.000Z,994
2022-11-23T13:50:42.000Z,994
2022-11-23T13:51:54.000Z,994
2022-11-23T13:53:06.000Z,994
2022-11-23T13:54:18.000Z,994
2022-11-23T13:55:30.000Z,994.1
2022-11-23T13:56:41.000Z,994
2022-11-23T13:57:54.000Z,994
2022-11-23T13:59:06.000Z,994
2022-11-23T14:00:18.000Z,994.1
2022-11-23T14:01:30.000Z,994
2022-11-23T14:02:42.000Z,994.1
2022-11-23T14:03:55.000Z,994.1
2022-11-23T14:05:07.000Z,994.1
2022-11-23T14:06:19.000Z,994
2022-11-23T14:07:31.000Z,994.1
2022-11-23T14:08:43.000Z,994.1
2022-11-23T14:09:55.000Z,994.1
2022-11-23T14:11:08.000Z,994.1
2022-11-23T14:12:19.000Z,994
2022-11-23T14:13:31.000Z,994
2022-11-23T14:14:43.000Z,994
2022-11-23T14:15:55.000Z,994
2022-11-23T14:17:08.000Z,994
2022-11-23T14:18:20.000Z,994.1
2022-11-23T14:19:32.000Z,994
2022-11-23T14:20:44.000Z,994
2022-11-23T14:21:56.000Z,994
2022-11-23T14:23:09.000Z,994
2022-11-23T14:24:21.000Z,994
2022-11-23T14:25:33.000Z,994.1
2022-11-23T14:26:45.000Z,994
2022-11-23T14:27:56.000Z,994.1
2022-11-23T14:29:08.000Z,994
2022-11-23T14:30:21.000Z,994
2022-11-23T14:31:33.000Z,994
2022-11-23T14:32:45.000Z,994
2022-11-23T14:33:57.000Z,994
2022-11-23T14:35:09.000Z,994.1
2022-11-23T14:36:22.000Z,994.1
2022-11-23T14:37:34.000Z,994.2
2022-11-23T14:38:46.000Z,994.1
2022-11-23T14:39:58.000Z,994.2
2022-11-23T14:41:10.000Z,994.2
2022-11-23T14:42:22.000Z,994.2
2022-11-23T14:43:34.000Z,994.2
2022-11-23T14:44:46.000Z,994.2
2022-11-23T14:45:58.000Z,994.2
2022-11-23T14:47:10.000Z,994.2
2022-11-23T14:48:22.000Z,994.3
2022-11-23T14:49:35.000Z,994.2
2022-11-23T14:50:47.000Z,994.2
2022-11-23T14:51:59.000Z,994.2
2022-11-23T14:53:11.000Z,994.2
2022-11-23T14:54:23.000Z,994.2
2022-11-23T14:55:36.000Z,994.2
2022-11-23T14:56:48.000Z,994.2
2022-11-23T14:58:00.000Z,994.2
2022-11-23T14:59:11.000Z,994.2
2022-11-23T15:00:23.000Z,994.2
2022-11-23T15:01:35.000Z,994.2
2022-11-23T15:02:48.000Z,994.2
2022-11-23T15:04:00.000Z,994.2
2022-11-23T15:05:12.000Z,994.2
2022-11-23T15:06:24.000Z,994.2
2022-11-23T15:07:36.000Z,994.2
2022-11-23T15:08:49.000Z,994.2
2022-11-23T15:10:01.000Z,994.2
2022-11-23T15:11:13.000Z,994.2
2022-11-23T15:12:25.000Z,994.2
2022-11-23T15:13:37.000Z,994.2
2022-11-23T15:14:49.000Z,994.2
2022-11-23T15:17:13.000Z,994.2
2022-11-23T15:18:25.000Z,994.2
2022-11-23T15:19:37.000Z,994.2
2022-11-23T15:20:49.000Z,994.2
2022-11-23T15:22:02.000Z,994.2
2022-11-23T15:22:45.754Z,994.2
2022-11-23T15:23:14.000Z,994.2
2022-11-23T15:24:26.000Z,994.1
2022-11-23T15:25:38.000Z,994.2
2022-11-23T15:26:50.000Z,994.2
2022-11-23T15:28:03.000Z,994.1
2022-11-23T15:29:15.000Z,994.2
2022-11-23T15:30:26.000Z,994.1
2022-11-23T15:31:38.000Z,994.1
2022-11-23T15:32:50.000Z,994.1
2022-11-23T15:34:03.000Z,994.2
2022-11-23T15:35:15.000Z,994.2